Aérodrome :
LOGIN :

S'inscrire | Disclaimer

   EN    FR    IT 

 










Légende :    VFR   VFR Marginal   IFR   IFR Intensif   IFR Très Intensif
Visi : 
Plafond : 
>= 8 km
>= 3000ft
5 à 8 km
1000 à 3000 ft
1500m à 5 km
500 à 1000 ft
800 à 1500m
200 à 500 ft
< 800m
< 200 ft
Symboles :   Orages  Brouillard  Fortes neiges  Fortes précipitations  Vent > 20 kt
SIGMETs :   Divers  Orages  Givrage  Turbulence  Onde Orograph.  Cendres Volcan.






- Altitude de l'aérodrome : 24 ft
- Code IATA : FAO


LPFR - Faro

DERNIER METAR :
  • 012130Z 27009KT 9999 FEW018 13/10 Q1012

METARs EXPIRÉS :
  • 012100Z 28011KT 9999 FEW015 13/10 Q1012
  • 012030Z 28013KT 9999 SCT015 13/10 Q1012
  • 012000Z 26012KT 9999 FEW010 SCT018 13/11 Q1011
  • 011930Z 25012KT 9999 -RA FEW010 SCT018 FEW020CB 13/11 Q1011 RERA
  • 011900Z 23018G28KT 4000 SHRA FEW010 BKN015 FEW020CB 13/11 Q1011
  • 011830Z 24015KT 9999 FEW015 FEW020CB 13/11 Q1011

TAF TAF LPFR
Valide du 01 à 18h jusqu'au 02 à 18h UTC


011700Z 0118/0218 24015KT 9999 FEW015 SCT035
TEMPO 0118/0122 5000 SHRA SCT008 BKN015 FEW020CB
PROB30
TEMPO 0118/0120 3000 TSRAGS BKN010 SCT018CB
BECMG 0122/0124 29008KT FEW035
BECMG 0202/0204 34008KT
TEMPO 0209/0216 BKN035
BECMG 0214/0216 29007KT



MET'MAP, la Météo Aéronautique d'un coup d'oeil ! - Copyright ORBIFLY Décembre 2007 - Disclaimer

ORBIFLY MET'MAP TEAM :

Programmation & Développement : Alexandra Zaïnal
Sur une idée originale de : Baudouin d'Aumeries
Assistance à la programmation : Marc-Olivier Méhu
Soutien technique & logistique : Manuel Goepfert

Contact : metmap@orbifly.com




SOURCES & CREDITS :

   NOAA